Vremea mâine în Cluj Napoca - Romania

Vrei sa afli care e starea vremii acum in Cluj - Romania? Dorim sa iti furnizam starea vremii pentru Cluj - Romania. Starea vremii Cluj - Romania pentru astazi.

Vremea mâine în Cluj Napoca

Temperatura minimă:
1.6 °C

Temperatura maximă:
14.4 °C

Mâine va fi: Senin
Precipitații: 0 %
Umiditate: 57%
Viteza maximă vânt mâine:
18.7 km/h

Evoluția vremii in Cluj Napoca pe ore mâine

Ora: 14:00
Temperatura: °C
Sansa de precipitatii: %
Ora Descriere Temp Se simte Precipitatii Umiditate Vant
00:00Senin8.1°5.2°0%64%SSE 17.3 KM/H
01:00Senin7.8°4.8°0%63%SSE 18.7 KM/H
02:00Senin1.4°0%70%SSE 17.6 KM/H
03:00Senin3.6°0.2°0%73%SSE 13.7 KM/H
04:00Senin2.7°-0.4°0%76%SSE 11.5 KM/H
05:00Senin2.1°-1°0%78%SSE 10.8 KM/H
06:00Senin1.6°-1.4°0%79%SSE 10.1 KM/H
07:00Senin2.2°-0.4°0%78%SSE 9 KM/H
08:006.2°0%69%SE 10.4 KM/H
09:008.2°5.8°0%59%SE 14.8 KM/H
10:00Senin9.7°7.3°0%54%SE 16.9 KM/H
11:00Senin10.9°8.8°0%49%SE 16.6 KM/H
12:00Senin12°10.3°0%46%SE 15.1 KM/H
13:00Senin12.9°11.7°0%44%SE 13 KM/H
14:00Senin13.6°12.7°0%42%SE 11.5 KM/H
15:00Senin14.1°13.5°0%41%ESE 10.4 KM/H
16:00Senin14.3°14.1°0%40%SE 7.9 KM/H
17:00Senin14.4°14.7°0%39%SE 5 KM/H
18:00Senin14.3°15°0%40%SSE 3.6 KM/H
19:00Senin13.9°13.9°0%47%SE 2.9 KM/H
20:00Senin9.4°9.6°0%55%SSE 3.6 KM/H
21:00Senin7.2°6.6°0%55%S 5 KM/H
22:00Senin6.4°5.5°0%57%SSW 5.4 KM/H
23:00Senin5.8°4.9°0%58%SW 5.4 KM/H




tutorials